KHQM/HQM METAR and TAF weather

Enter ICAO airport designator
Station Type Date Time Source
KHQM METAR 2021/03/08 14:53 UTC NOAA

KHQM 081453Z AUTO 08009KT 9SM -SN CLR 01/00 A2998 RMK AO2 SNB33 SLP155 P0000 60000 T00060000 56015


Station Type Date Time Source
KHQM Decoded METAR 2021/03/08 14:53 UTC NOAA

HOQUIAM BOWERMAN AIRPORT, WA, United States (KHQM) 46-58N 123-56W 7M
Mar 08, 2021 - 09:53 AM EST / 2021.03.08 1453 UTC
Wind: from the E (080 degrees) at 10 MPH (9 KT):0
Visibility: 9 mile(s):0
Sky conditions: clear
Weather: light snow
Precipitation last hour: A trace
Temperature: 33.1 F (0.6 C)
Windchill: 24 F (-4 C):1
Dew Point: 32.0 F (0.0 C)
Relative Humidity: 95%
Pressure (altimeter): 29.98 in. Hg (1015 hPa)
Pressure tendency: 0.04 inches (1.5 hPa) lower than three hours ago
ob: KHQM 081453Z AUTO 08009KT 9SM -SN CLR 01/00 A2998 RMK AO2 SNB33 SLP155 P0000 60000 T00060000 56015
cycle: 15

Station Type Date Time Source
KHQM TAF 2021/03/08 12:24 UTC NOAA

TAF KHQM 081121Z 0812/0912 10007KT P6SM SCT250
FM081900 11011KT P6SM SCT250
FM082300 15014KT P6SM VCSH SCT050 SCT100
FM090200 13010KT P6SM -SHRA OVC050

Example: see airport list